Time;durP1;ratioP1;P1;durP2;ratioP2;P2;SDS_P1;SDS_P2;PMS_P1;PMS_P2;Temp;Humidity;BMP_temperature;BMP_pressure;BME280_temperature;BME280_humidity;BME280_pressure;Samples;Min_cycle;Max_cycle;Signal;HPM_P1;HPM_P2
2024/03/08 00:00:35;;;;;;;5.53;2.78;;;;;;;;;;5056038;28;20041;-75
2024/03/08 00:03:02;;;;;;;6.05;3.10;;;;;;;;;;5055588;28;20098;-76
2024/03/08 00:05:29;;;;;;;6.10;3.15;;;;;;;;;;5055236;28;20120;-76
2024/03/08 00:07:56;;;;;;;5.63;3.13;;;;;;;;;;5055016;28;20040;-76
2024/03/08 00:10:23;;;;;;;3.53;2.60;;;;;;;;;;5053107;28;20053;-76
2024/03/08 00:12:53;;;;;;;3.85;2.80;;;;;;;;;;5053438;28;20052;-76
2024/03/08 00:15:22;;;;;;;4.13;2.88;;;;;;;;;;5053472;28;20060;-75
2024/03/08 00:17:50;;;;;;;4.65;2.97;;;;;;;;;;5053801;28;20049;-76
2024/03/08 00:20:20;;;;;;;6.95;2.90;;;;;;;;;;5034532;28;20048;-76
2024/03/08 00:22:47;;;;;;;4.40;2.80;;;;;;;;;;5053978;28;20045;-76
2024/03/08 00:25:14;;;;;;;3.88;3.22;;;;;;;;;;5054822;28;20041;-76
2024/03/08 00:27:41;;;;;;;4.63;2.97;;;;;;;;;;5055238;28;20475;-76
2024/03/08 00:30:08;;;;;;;4.32;3.00;;;;;;;;;;5054824;28;20451;-75
2024/03/08 00:32:36;;;;;;;4.90;3.17;;;;;;;;;;5055493;28;20107;-75
2024/03/08 00:35:07;;;;;;;5.55;3.40;;;;;;;;;;5054667;28;20079;-75
2024/03/08 00:37:34;;;;;;;6.80;3.60;;;;;;;;;;5055231;28;20056;-75
2024/03/08 00:40:01;;;;;;;5.20;3.08;;;;;;;;;;5055162;28;20047;-76
2024/03/08 00:42:28;;;;;;;7.38;3.35;;;;;;;;;;5054578;28;20049;-76
2024/03/08 00:44:54;;;;;;;4.78;3.20;;;;;;;;;;5054973;28;20052;-76
2024/03/08 00:47:21;;;;;;;5.68;3.38;;;;;;;;;;5054512;28;20132;-76
2024/03/08 00:49:48;;;;;;;7.43;3.90;;;;;;;;;;5054798;28;20036;-76
2024/03/08 00:52:15;;;;;;;4.85;3.40;;;;;;;;;;5054657;28;20045;-76
2024/03/08 00:54:43;;;;;;;6.35;3.22;;;;;;;;;;5054823;28;20041;-75
2024/03/08 00:57:11;;;;;;;4.85;3.40;;;;;;;;;;5054460;28;20045;-76
2024/03/08 00:59:38;;;;;;;5.97;3.53;;;;;;;;;;5054722;28;20475;-75
2024/03/08 01:02:06;;;;;;;4.30;3.15;;;;;;;;;;5054308;28;20037;-76
2024/03/08 01:04:33;;;;;;;7.28;3.70;;;;;;;;;;5037139;28;20040;-75
2024/03/08 01:07:00;;;;;;;4.75;3.65;;;;;;;;;;5036833;28;20048;-76
2024/03/08 01:09:27;;;;;;;5.75;3.53;;;;;;;;;;5054366;28;20045;-76
2024/03/08 01:11:54;;;;;;;5.85;3.53;;;;;;;;;;5054458;28;20057;-76
2024/03/08 01:14:31;;;;;;;4.80;3.90;;;;;;;;;;5053994;28;20033;-76
2024/03/08 01:16:58;;;;;;;4.88;3.33;;;;;;;;;;5054450;28;20041;-75
2024/03/08 01:19:25;;;;;;;5.82;3.75;;;;;;;;;;5053871;28;20471;-76
2024/03/08 01:21:52;;;;;;;7.15;3.45;;;;;;;;;;5054473;28;20055;-75
2024/03/08 01:24:19;;;;;;;5.43;3.30;;;;;;;;;;5053776;28;20037;-76
2024/03/08 01:26:47;;;;;;;6.43;3.63;;;;;;;;;;5054390;28;20041;-76
2024/03/08 01:29:14;;;;;;;6.30;3.50;;;;;;;;;;5053898;28;20098;-76
2024/03/08 01:31:40;;;;;;;6.28;3.70;;;;;;;;;;5053833;28;20040;-76
2024/03/08 01:34:07;;;;;;;6.28;3.67;;;;;;;;;;5053462;28;20043;-75
2024/03/08 01:36:34;;;;;;;5.38;3.72;;;;;;;;;;5054082;28;20049;-75
2024/03/08 01:39:00;;;;;;;5.47;3.90;;;;;;;;;;5054182;28;20120;-76
2024/03/08 01:41:29;;;;;;;4.68;3.65;;;;;;;;;;5053490;28;20041;-76
2024/03/08 01:43:56;;;;;;;4.50;3.45;;;;;;;;;;5053981;28;20045;-76
2024/03/08 01:46:23;;;;;;;6.63;3.85;;;;;;;;;;5053028;28;20045;-75
2024/03/08 01:48:50;;;;;;;4.88;3.83;;;;;;;;;;5053824;28;20041;-76
2024/03/08 01:51:18;;;;;;;7.03;3.90;;;;;;;;;;5053457;28;20045;-75
2024/03/08 01:53:47;;;;;;;4.90;3.60;;;;;;;;;;5053639;28;20037;-76
2024/03/08 01:56:14;;;;;;;4.68;3.33;;;;;;;;;;5053297;28;20068;-76
2024/03/08 01:58:43;;;;;;;5.75;3.78;;;;;;;;;;5053896;28;20095;-75
2024/03/08 02:01:16;;;;;;;5.03;3.50;;;;;;;;;;5052683;28;20045;-76
2024/03/08 02:03:44;;;;;;;5.60;3.60;;;;;;;;;;5053347;28;20060;-76
2024/03/08 02:06:14;;;;;;;4.32;3.50;;;;;;;;;;5052999;28;20048;-76
2024/03/08 02:08:44;;;;;;;6.75;3.95;;;;;;;;;;5053814;28;20048;-76
2024/03/08 02:11:13;;;;;;;5.88;4.05;;;;;;;;;;5052959;28;20052;-76
2024/03/08 02:13:40;;;;;;;6.07;3.88;;;;;;;;;;5053311;28;20049;-76
2024/03/08 02:16:08;;;;;;;5.63;3.75;;;;;;;;;;5052930;28;20045;-76
2024/03/08 02:18:35;;;;;;;5.68;3.47;;;;;;;;;;5053306;28;20069;-76
2024/03/08 02:21:04;;;;;;;6.35;3.35;;;;;;;;;;5053150;28;20375;-76
2024/03/08 02:23:32;;;;;;;6.28;3.97;;;;;;;;;;5053009;28;20052;-75
2024/03/08 02:25:59;;;;;;;4.53;3.30;;;;;;;;;;5035252;28;20047;-75
2024/03/08 02:28:26;;;;;;;5.47;3.30;;;;;;;;;;5052737;28;20287;-76
2024/03/08 02:30:56;;;;;;;6.18;3.72;;;;;;;;;;5035636;28;20361;-76
2024/03/08 02:33:26;;;;;;;5.97;3.88;;;;;;;;;;5052671;28;20132;-76
2024/03/08 02:35:53;;;;;;;7.05;4.15;;;;;;;;;;5053041;28;20041;-75
2024/03/08 02:38:22;;;;;;;8.80;3.90;;;;;;;;;;5034664;28;20471;-75
2024/03/08 02:40:50;;;;;;;6.15;4.10;;;;;;;;;;5052858;28;20065;-76
2024/03/08 02:43:18;;;;;;;;;;;;;;;;;;5052194;28;20041;-76
2024/03/08 02:45:45;;;;;;;6.25;4.07;;;;;;;;;;5052701;28;19921;-76
2024/03/08 02:48:13;;;;;;;7.97;4.18;;;;;;;;;;5052333;28;20048;-76
2024/03/08 02:50:42;;;;;;;6.93;4.05;;;;;;;;;;5035298;28;20036;-75
2024/03/08 02:53:09;;;;;;;6.15;3.88;;;;;;;;;;5052239;28;20059;-76
2024/03/08 02:55:37;;;;;;;5.93;4.30;;;;;;;;;;5052513;28;20052;-76
2024/03/08 02:58:04;;;;;;;6.00;4.15;;;;;;;;;;5052629;28;20364;-76
2024/03/08 03:00:32;;;;;;;5.57;3.97;;;;;;;;;;5052682;28;20379;-76
2024/03/08 03:03:02;;;;;;;5.70;4.43;;;;;;;;;;5035346;28;20041;-75
2024/03/08 03:05:30;;;;;;;6.03;4.03;;;;;;;;;;5052480;28;20045;-75
2024/03/08 03:07:58;;;;;;;8.27;4.55;;;;;;;;;;5052605;28;20558;-75
2024/03/08 03:10:25;;;;;;;8.02;4.20;;;;;;;;;;5052052;28;20077;-76
2024/03/08 03:12:52;;;;;;;7.00;4.03;;;;;;;;;;5052649;28;20041;-75
2024/03/08 03:15:19;;;;;;;7.53;4.35;;;;;;;;;;5052196;28;20490;-76
2024/03/08 03:17:47;;;;;;;6.93;4.03;;;;;;;;;;5052460;28;20049;-75
2024/03/08 03:20:16;;;;;;;5.53;4.10;;;;;;;;;;5052128;28;20103;-76
2024/03/08 03:22:48;;;;;;;5.90;4.20;;;;;;;;;;5052495;28;20045;-77
2024/03/08 03:25:15;;;;;;;6.88;3.75;;;;;;;;;;5047112;28;20112;-76
2024/03/08 03:27:42;;;;;;;8.20;4.45;;;;;;;;;;5052571;28;20048;-76
2024/03/08 03:30:21;;;;;;;6.22;4.30;;;;;;;;;;5051797;28;20471;-75
2024/03/08 03:32:50;;;;;;;6.05;4.15;;;;;;;;;;5052675;28;20049;-75
2024/03/08 03:35:18;;;;;;;7.45;5.03;;;;;;;;;;5051898;28;20430;-76
2024/03/08 03:37:51;;;;;;;7.68;4.65;;;;;;;;;;5052422;28;20045;-76
2024/03/08 03:40:20;;;;;;;15.13;5.10;;;;;;;;;;5051958;28;20094;-75
2024/03/08 03:42:47;;;;;;;5.30;3.78;;;;;;;;;;5052509;28;20048;-76
2024/03/08 03:45:14;;;;;;;6.63;4.75;;;;;;;;;;5051807;28;20136;-75
2024/03/08 03:47:43;;;;;;;7.00;4.63;;;;;;;;;;5052477;28;20518;-76
2024/03/08 03:50:10;;;;;;;8.55;4.95;;;;;;;;;;5051741;28;20049;-76
2024/03/08 03:52:37;;;;;;;8.52;3.92;;;;;;;;;;5052338;28;20548;-75
2024/03/08 03:55:04;;;;;;;7.55;4.53;;;;;;;;;;5053807;28;20041;-75
2024/03/08 03:57:31;;;;;;;7.80;5.35;;;;;;;;;;5038035;28;20087;-76
2024/03/08 03:59:58;;;;;;;7.78;5.00;;;;;;;;;;5056079;28;20043;-75
2024/03/08 04:02:26;;;;;;;7.00;4.90;;;;;;;;;;5055204;28;20321;-76
2024/03/08 04:04:54;;;;;;;8.93;4.57;;;;;;;;;;5055566;28;20102;-76
2024/03/08 04:07:21;;;;;;;9.52;5.03;;;;;;;;;;5055476;28;20049;-76
2024/03/08 04:09:47;;;;;;;8.60;4.93;;;;;;;;;;5055840;28;20407;-75
2024/03/08 04:12:15;;;;;;;11.15;5.70;;;;;;;;;;5055321;28;20056;-76
2024/03/08 04:14:42;;;;;;;6.43;4.78;;;;;;;;;;5055776;28;20049;-75
2024/03/08 04:17:09;;;;;;;8.20;5.28;;;;;;;;;;5055097;28;20044;-75
2024/03/08 04:19:36;;;;;;;9.82;5.20;;;;;;;;;;5055557;28;20107;-75
2024/03/08 04:22:03;;;;;;;7.50;5.05;;;;;;;;;;5055526;28;20075;-75
2024/03/08 04:24:30;;;;;;;6.78;5.18;;;;;;;;;;5055506;28;20048;-76
2024/03/08 04:26:58;;;;;;;10.15;5.70;;;;;;;;;;5055286;28;20102;-76
2024/03/08 04:29:26;;;;;;;7.63;5.35;;;;;;;;;;5055007;28;20063;-76
2024/03/08 04:31:55;;;;;;;8.35;4.88;;;;;;;;;;5055588;28;20045;-76
2024/03/08 04:34:22;;;;;;;7.32;4.80;;;;;;;;;;5054569;28;20040;-76
2024/03/08 04:36:49;;;;;;;7.07;4.80;;;;;;;;;;5055295;28;20041;-76
2024/03/08 04:39:18;;;;;;;7.78;5.00;;;;;;;;;;5053740;28;20052;-76
2024/03/08 04:41:45;;;;;;;;;;;;;;;;;;5055598;28;20132;-75
2024/03/08 04:44:12;;;;;;;9.45;5.40;;;;;;;;;;5054513;28;20627;-76
2024/03/08 04:46:39;;;;;;;7.45;4.97;;;;;;;;;;5055099;28;20045;-76
2024/03/08 04:49:07;;;;;;;9.32;5.55;;;;;;;;;;5054534;28;20559;-76
2024/03/08 04:51:33;;;;;;;9.50;6.00;;;;;;;;;;5054897;28;20049;-76
2024/03/08 04:54:00;;;;;;;6.78;5.30;;;;;;;;;;5055167;28;20388;-76
2024/03/08 04:56:27;;;;;;;7.85;5.22;;;;;;;;;;5054399;28;20422;-76
2024/03/08 04:58:54;;;;;;;10.40;5.80;;;;;;;;;;5037338;28;20116;-76
2024/03/08 05:01:21;;;;;;;7.97;5.15;;;;;;;;;;5054622;28;20464;-75
2024/03/08 05:03:49;;;;;;;7.85;5.10;;;;;;;;;;5054621;28;20392;-76
2024/03/08 05:06:16;;;;;;;8.30;5.07;;;;;;;;;;5053489;28;20490;-75
2024/03/08 05:08:43;;;;;;;9.80;5.53;;;;;;;;;;5054898;28;20065;-75
2024/03/08 05:11:10;;;;;;;6.18;4.80;;;;;;;;;;5054150;28;20066;-76
2024/03/08 05:13:37;;;;;;;9.43;5.60;;;;;;;;;;5054616;28;20041;-76
2024/03/08 05:16:04;;;;;;;7.57;4.90;;;;;;;;;;5054468;28;20049;-76
2024/03/08 05:18:32;;;;;;;8.23;5.18;;;;;;;;;;5054492;28;20056;-76
2024/03/08 05:20:59;;;;;;;8.80;5.73;;;;;;;;;;5036869;28;20487;-75
2024/03/08 05:23:25;;;;;;;8.70;5.30;;;;;;;;;;5054196;28;20336;-76
2024/03/08 05:25:52;;;;;;;6.65;4.88;;;;;;;;;;5054213;28;20049;-75
2024/03/08 05:28:20;;;;;;;11.75;5.30;;;;;;;;;;5053797;28;20045;-75
2024/03/08 05:30:46;;;;;;;9.68;5.47;;;;;;;;;;5054464;28;20048;-76
2024/03/08 05:33:14;;;;;;;6.18;4.85;;;;;;;;;;5053807;28;20072;-75
2024/03/08 05:35:41;;;;;;;8.73;5.47;;;;;;;;;;5054029;28;20041;-75
2024/03/08 05:38:08;;;;;;;9.65;6.05;;;;;;;;;;5053768;28;20068;-76
2024/03/08 05:40:34;;;;;;;8.10;5.10;;;;;;;;;;5054293;28;20045;-76
2024/03/08 05:43:01;;;;;;;7.40;5.38;;;;;;;;;;5054214;28;20045;-76
2024/03/08 05:45:28;;;;;;;9.80;5.88;;;;;;;;;;5053519;28;20410;-75
2024/03/08 05:47:55;;;;;;;8.18;5.18;;;;;;;;;;5053830;28;20048;-76
2024/03/08 05:50:22;;;;;;;7.50;5.22;;;;;;;;;;5053459;28;20041;-76
2024/03/08 05:52:49;;;;;;;9.10;5.85;;;;;;;;;;5054175;28;20051;-76
2024/03/08 05:55:16;;;;;;;7.93;5.78;;;;;;;;;;5053406;28;20086;-75
2024/03/08 05:57:43;;;;;;;8.45;5.28;;;;;;;;;;5053870;28;20056;-75
2024/03/08 06:00:10;;;;;;;9.32;5.95;;;;;;;;;;5053295;28;20428;-76
2024/03/08 06:02:40;;;;;;;9.65;5.97;;;;;;;;;;5036082;28;20048;-79
2024/03/08 06:05:10;;;;;;;7.88;5.35;;;;;;;;;;5035720;28;20048;-79
2024/03/08 06:07:40;;;;;;;7.65;5.55;;;;;;;;;;5053473;28;20041;-76
2024/03/08 06:10:12;;;;;;;11.30;6.53;;;;;;;;;;5053096;28;20087;-76
2024/03/08 06:12:41;;;;;;;10.45;6.50;;;;;;;;;;5035856;28;20103;-76
2024/03/08 06:15:09;;;;;;;11.18;6.38;;;;;;;;;;5035479;28;20056;-76
2024/03/08 06:17:36;;;;;;;11.73;6.22;;;;;;;;;;5053542;28;20037;-76
2024/03/08 06:20:10;;;;;;;8.60;5.85;;;;;;;;;;5053219;28;20130;-76
2024/03/08 06:22:40;;;;;;;9.75;6.20;;;;;;;;;;5073159;28;20048;-75
2024/03/08 06:25:16;;;;;;;13.50;6.55;;;;;;;;;;5072718;28;20032;-76
2024/03/08 06:27:43;;;;;;;11.25;6.70;;;;;;;;;;5056095;28;20437;-76
2024/03/08 06:30:10;;;;;;;9.88;5.95;;;;;;;;;;5072767;28;20118;-77
2024/03/08 06:32:37;;;;;;;11.57;6.93;;;;;;;;;;5073173;28;20044;-76
2024/03/08 06:35:06;;;;;;;11.68;7.25;;;;;;;;;;5072550;28;20382;-76
2024/03/08 06:37:33;;;;;;;9.55;6.88;;;;;;;;;;5073058;28;20040;-77
2024/03/08 06:40:01;;;;;;;11.52;6.80;;;;;;;;;;5073100;28;20362;-76
2024/03/08 06:42:28;;;;;;;10.80;6.88;;;;;;;;;;5072670;28;20049;-76
2024/03/08 06:44:59;;;;;;;10.48;7.80;;;;;;;;;;5072905;28;20446;-76
2024/03/08 06:47:26;;;;;;;10.18;6.72;;;;;;;;;;5072193;28;20476;-76
2024/03/08 06:49:53;;;;;;;12.48;7.28;;;;;;;;;;5073085;28;20047;-76
2024/03/08 06:52:20;;;;;;;13.10;7.65;;;;;;;;;;5072317;28;20045;-76
2024/03/08 06:54:46;;;;;;;10.73;6.78;;;;;;;;;;5072979;28;20047;-76
2024/03/08 06:57:13;;;;;;;9.50;6.60;;;;;;;;;;5072220;28;20483;-76
2024/03/08 06:59:40;;;;;;;8.80;6.25;;;;;;;;;;5072697;28;20463;-77
2024/03/08 07:02:09;;;;;;;9.32;7.07;;;;;;;;;;5072445;28;20051;-76
2024/03/08 07:04:37;;;;;;;9.75;6.55;;;;;;;;;;5072947;28;20045;-76
2024/03/08 07:07:05;;;;;;;9.65;6.70;;;;;;;;;;5072374;28;20049;-74
2024/03/08 07:09:32;;;;;;;13.02;6.80;;;;;;;;;;5054902;28;20433;-77
2024/03/08 07:11:59;;;;;;;9.57;6.82;;;;;;;;;;5072890;28;20045;-76
2024/03/08 07:14:26;;;;;;;11.07;6.40;;;;;;;;;;5072261;28;20507;-76
2024/03/08 07:16:52;;;;;;;9.23;6.80;;;;;;;;;;5072658;28;20040;-76
2024/03/08 07:19:19;;;;;;;10.43;6.90;;;;;;;;;;5072141;28;20117;-77
2024/03/08 07:21:47;;;;;;;10.35;6.30;;;;;;;;;;5072553;28;20056;-77
2024/03/08 07:26:44;;;;;;;8.73;6.57;;;;;;;;;;5072320;28;20102;-76
2024/03/08 07:29:10;;;;;;;11.32;7.18;;;;;;;;;;5054660;28;20051;-77
2024/03/08 07:34:07;;;;;;;10.32;6.38;;;;;;;;;;5075989;28;20040;-75
2024/03/08 07:36:37;;;;;;;9.20;5.47;;;;;;;;;;5076487;28;20044;-77
2024/03/08 07:39:11;;;;;;;9.30;6.53;;;;;;;;;;5075897;28;20491;-75
2024/03/08 07:41:39;;;;;;;11.80;5.90;;;;;;;;;;5076554;28;20127;-77
2024/03/08 07:44:07;;;;;;;9.98;6.53;;;;;;;;;;5075984;28;20127;-76
2024/03/08 07:46:34;;;;;;;10.68;6.43;;;;;;;;;;5075491;28;20048;-77
2024/03/08 07:49:00;;;;;;;10.23;5.93;;;;;;;;;;5053247;28;20053;-77
2024/03/08 07:51:27;;;;;;;10.55;5.97;;;;;;;;;;5072651;28;20126;-77
2024/03/08 07:53:54;;;;;;;9.25;6.03;;;;;;;;;;5074841;28;20405;-77
2024/03/08 07:56:26;;;;;;;11.23;6.38;;;;;;;;;;5074088;28;20098;-77
2024/03/08 07:58:53;;;;;;;8.55;5.38;;;;;;;;;;5074399;28;20672;-77
2024/03/08 08:01:20;;;;;;;11.07;6.20;;;;;;;;;;5073943;28;20123;-77
2024/03/08 08:03:48;;;;;;;10.50;6.25;;;;;;;;;;5069881;28;20051;-76
2024/03/08 08:06:15;;;;;;;10.63;5.72;;;;;;;;;;5073750;28;20052;-77
2024/03/08 08:08:43;;;;;;;9.25;5.75;;;;;;;;;;5074620;28;20044;-77
2024/03/08 08:11:11;;;;;;;9.20;5.88;;;;;;;;;;5073825;28;20044;-76
2024/03/08 08:13:38;;;;;;;8.60;5.72;;;;;;;;;;5074258;28;20045;-77
2024/03/08 08:16:06;;;;;;;8.88;5.72;;;;;;;;;;5073613;28;20131;-76
2024/03/08 08:18:33;;;;;;;8.60;5.43;;;;;;;;;;5074004;28;20060;-77
2024/03/08 08:21:02;;;;;;;9.32;5.57;;;;;;;;;;5074180;28;20032;-77
2024/03/08 08:23:29;;;;;;;7.40;5.18;;;;;;;;;;5073679;28;20055;-77
2024/03/08 08:25:56;;;;;;;9.02;5.25;;;;;;;;;;5073985;28;20045;-76
2024/03/08 08:28:24;;;;;;;9.05;5.38;;;;;;;;;;5073251;28;20040;-77
2024/03/08 08:30:51;;;;;;;7.80;4.95;;;;;;;;;;5074003;28;20433;-77
2024/03/08 08:33:18;;;;;;;9.90;5.50;;;;;;;;;;5060269;28;20037;-76
2024/03/08 08:35:44;;;;;;;7.30;5.10;;;;;;;;;;5073577;28;20036;-76
2024/03/08 08:38:12;;;;;;;11.63;5.45;;;;;;;;;;5062176;28;20136;-77
2024/03/08 08:40:39;;;;;;;11.63;5.53;;;;;;;;;;5070743;28;20032;-77
2024/03/08 08:43:06;;;;;;;7.57;5.50;;;;;;;;;;5072781;28;20056;-77
2024/03/08 08:45:33;;;;;;;10.70;5.30;;;;;;;;;;5073489;28;20047;-77
2024/03/08 08:48:00;;;;;;;10.25;5.47;;;;;;;;;;5073701;28;20424;-76
2024/03/08 08:50:28;;;;;;;11.75;5.57;;;;;;;;;;5055510;28;20093;-76
2024/03/08 08:52:55;;;;;;;9.87;5.77;;;;;;;;;;5073778;28;20040;-77
2024/03/08 08:55:26;;;;;;;8.38;5.40;;;;;;;;;;5073004;28;20471;-77
2024/03/08 08:57:53;;;;;;;10.15;5.63;;;;;;;;;;5073637;28;20041;-76
2024/03/08 09:00:21;;;;;;;8.57;5.28;;;;;;;;;;5072713;28;20413;-77
2024/03/08 09:02:48;;;;;;;12.18;6.18;;;;;;;;;;5073577;28;20098;-77
2024/03/08 09:05:17;;;;;;;9.50;5.25;;;;;;;;;;5054747;28;20041;-76
2024/03/08 09:07:44;;;;;;;8.02;5.22;;;;;;;;;;5073171;28;20118;-77
2024/03/08 09:10:12;;;;;;;8.63;5.38;;;;;;;;;;5072419;28;20048;-77
2024/03/08 09:12:41;;;;;;;8.32;5.20;;;;;;;;;;5073479;28;20059;-77
2024/03/08 09:15:10;;;;;;;6.80;5.28;;;;;;;;;;5072689;28;20383;-77
2024/03/08 09:17:41;;;;;;;9.30;4.90;;;;;;;;;;5072981;28;20040;-77
2024/03/08 09:20:10;;;;;;;8.75;4.95;;;;;;;;;;5072731;28;20036;-76
2024/03/08 09:22:37;;;;;;;;;;;;;;;;;;5055736;28;20478;-77
2024/03/08 09:25:05;;;;;;;8.73;5.70;;;;;;;;;;5073709;28;19924;-75
2024/03/08 09:27:31;;;;;;;8.75;4.70;;;;;;;;;;5072472;28;20047;-77
2024/03/08 09:29:58;;;;;;;9.35;5.93;;;;;;;;;;5055015;28;20036;-77
2024/03/08 09:32:26;;;;;;;11.23;4.85;;;;;;;;;;5072234;28;20461;-77
2024/03/08 09:34:53;;;;;;;7.85;4.70;;;;;;;;;;5072402;28;20475;-77
2024/03/08 09:37:20;;;;;;;9.88;5.00;;;;;;;;;;5072234;28;20084;-77
2024/03/08 09:39:46;;;;;;;7.20;4.50;;;;;;;;;;5072452;28;20048;-77
2024/03/08 09:42:15;;;;;;;6.20;4.60;;;;;;;;;;5071919;28;20051;-77
2024/03/08 09:44:46;;;;;;;10.73;5.28;;;;;;;;;;5072841;28;20048;-76
2024/03/08 09:47:14;;;;;;;9.65;4.55;;;;;;;;;;5071863;28;20048;-77
2024/03/08 09:49:43;;;;;;;8.43;4.60;;;;;;;;;;5072738;28;20041;-77
2024/03/08 09:52:12;;;;;;;7.68;5.53;;;;;;;;;;5071597;28;20511;-76
2024/03/08 09:54:39;;;;;;;11.65;5.35;;;;;;;;;;5055161;28;20048;-77
2024/03/08 09:57:09;;;;;;;7.55;4.80;;;;;;;;;;5053848;28;20131;-76
2024/03/08 10:02:02;;;;;;;9.10;4.72;;;;;;;;;;5071878;28;20475;-77
2024/03/08 10:04:30;;;;;;;10.50;4.85;;;;;;;;;;5071892;28;20065;-77
2024/03/08 10:06:59;;;;;;;7.75;4.70;;;;;;;;;;5071163;28;20040;-77
2024/03/08 10:09:27;;;;;;;7.83;4.90;;;;;;;;;;5072476;28;20054;-76
2024/03/08 10:11:57;;;;;;;6.22;3.97;;;;;;;;;;5072260;28;20362;-77
2024/03/08 10:14:26;;;;;;;7.72;4.50;;;;;;;;;;5055260;28;20484;-77
2024/03/08 10:16:53;;;;;;;;;;;;;;;;;;5073582;28;20440;-77
2024/03/08 10:19:21;;;;;;;7.20;4.50;;;;;;;;;;5071944;28;20274;-76
2024/03/08 10:21:53;;;;;;;6.32;4.55;;;;;;;;;;5073330;28;20050;-77
2024/03/08 10:24:20;;;;;;;5.45;4.32;;;;;;;;;;5072786;28;20383;-77
2024/03/08 10:26:47;;;;;;;8.80;4.50;;;;;;;;;;5073049;28;20482;-79
2024/03/08 10:29:17;;;;;;;7.25;4.45;;;;;;;;;;5072721;28;20067;-78
2024/03/08 10:31:44;;;;;;;7.15;4.93;;;;;;;;;;5073090;28;20127;-76
2024/03/08 10:34:12;;;;;;;8.85;4.53;;;;;;;;;;5072530;28;20037;-77
2024/03/08 10:36:40;;;;;;;12.00;5.78;;;;;;;;;;5073165;28;20048;-76
2024/03/08 10:39:24;;;;;;;9.95;5.63;;;;;;;;;;5072644;28;20053;-77
2024/03/08 10:41:57;;;;;;;9.85;5.20;;;;;;;;;;5052866;28;20056;-77
2024/03/08 10:44:29;;;;;;;7.75;5.65;;;;;;;;;;5052560;28;20056;-77
2024/03/08 10:47:19;;;;;;;7.90;5.38;;;;;;;;;;5052827;28;20052;-76
2024/03/08 10:50:04;;;;;;;8.98;4.88;;;;;;;;;;5053097;28;20383;-76
2024/03/08 10:52:31;;;;;;;8.52;4.32;;;;;;;;;;5052935;28;20048;-77
2024/03/08 10:55:00;;;;;;;10.95;4.32;;;;;;;;;;5053139;28;20051;-77
2024/03/08 10:57:27;;;;;;;;;;;;;;;;;;5053139;28;20045;-76
2024/03/08 10:59:55;;;;;;;7.65;4.20;;;;;;;;;;5053141;28;19920;-76
2024/03/08 11:02:27;;;;;;;5.90;3.97;;;;;;;;;;5052245;28;20060;-77
2024/03/08 11:04:56;;;;;;;7.55;3.95;;;;;;;;;;5051973;28;20045;-78
2024/03/08 11:07:27;;;;;;;6.72;3.83;;;;;;;;;;5051964;28;20057;-77
2024/03/08 11:09:56;;;;;;;10.35;4.32;;;;;;;;;;5052840;28;20128;-77
2024/03/08 11:12:29;;;;;;;6.28;3.85;;;;;;;;;;5052480;28;20099;-77
2024/03/08 11:15:00;;;;;;;6.47;3.92;;;;;;;;;;5018782;28;20045;-77
2024/03/08 11:17:27;;;;;;;8.80;4.05;;;;;;;;;;5052319;28;20048;-77
2024/03/08 11:20:05;;;;;;;9.18;4.88;;;;;;;;;;5052581;28;20068;-78
2024/03/08 11:22:33;;;;;;;10.07;4.20;;;;;;;;;;5052514;28;20049;-77
2024/03/08 11:25:09;;;;;;;8.35;3.58;;;;;;;;;;5056358;28;20449;-77
2024/03/08 11:27:37;;;;;;;12.45;3.92;;;;;;;;;;5072312;28;20048;-78
2024/03/08 11:30:12;;;;;;;11.07;4.15;;;;;;;;;;5072608;28;20033;-77
2024/03/08 11:32:46;;;;;;;10.40;4.50;;;;;;;;;;5055467;28;20044;-77
2024/03/08 11:35:25;;;;;;;7.78;4.10;;;;;;;;;;5071987;28;20118;-78
2024/03/08 11:37:52;;;;;;;10.77;3.90;;;;;;;;;;5072566;28;20047;-77
2024/03/08 11:40:19;;;;;;;9.95;4.55;;;;;;;;;;5071706;28;20055;-78
2024/03/08 11:42:48;;;;;;;7.68;3.83;;;;;;;;;;5072295;28;20053;-78
2024/03/08 11:45:17;;;;;;;11.32;4.82;;;;;;;;;;5065812;28;20066;-78
2024/03/08 11:47:47;;;;;;;9.07;4.88;;;;;;;;;;5069397;28;20056;-77
2024/03/08 11:50:16;;;;;;;8.02;3.60;;;;;;;;;;5070762;28;20067;-78
2024/03/08 11:52:43;;;;;;;8.75;3.30;;;;;;;;;;5053251;28;20131;-78
2024/03/08 11:55:12;;;;;;;8.82;2.85;;;;;;;;;;5070256;28;20375;-77
2024/03/08 11:57:40;;;;;;;10.25;2.95;;;;;;;;;;5070963;28;20474;-78
2024/03/08 12:00:21;;;;;;;8.52;2.60;;;;;;;;;;5070333;28;20040;-76
2024/03/08 12:03:04;;;;;;;6.43;3.20;;;;;;;;;;5070727;28;20048;-78
2024/03/08 12:05:33;;;;;;;9.25;3.13;;;;;;;;;;5059147;28;20049;-78
2024/03/08 12:08:06;;;;;;;10.60;2.90;;;;;;;;;;5070622;28;20037;-78
2024/03/08 12:10:35;;;;;;;12.40;3.53;;;;;;;;;;5070587;28;20094;-77
2024/03/08 12:13:03;;;;;;;10.68;3.35;;;;;;;;;;5053115;28;20486;-78
2024/03/08 12:15:33;;;;;;;7.50;3.42;;;;;;;;;;5071167;28;20123;-78
2024/03/08 12:18:00;;;;;;;14.40;3.60;;;;;;;;;;5073931;28;20049;-78
2024/03/08 12:20:31;;;;;;;8.18;2.60;;;;;;;;;;5073487;28;20044;-77
2024/03/08 12:22:59;;;;;;;14.00;3.45;;;;;;;;;;5074131;28;20566;-77
2024/03/08 12:25:35;;;;;;;8.00;2.90;;;;;;;;;;5073256;28;20044;-77
2024/03/08 12:28:13;;;;;;;12.82;3.10;;;;;;;;;;5073934;28;20299;-77
2024/03/08 12:30:48;;;;;;;9.38;2.70;;;;;;;;;;5062003;28;20044;-78
2024/03/08 12:33:16;;;;;;;10.30;3.63;;;;;;;;;;5073434;28;20048;-78
2024/03/08 12:35:53;;;;;;;12.60;3.00;;;;;;;;;;5074063;28;20056;-78
2024/03/08 12:38:25;;;;;;;10.50;2.95;;;;;;;;;;5073460;28;20305;-78
2024/03/08 12:40:58;;;;;;;9.68;3.38;;;;;;;;;;5073851;28;20502;-78
2024/03/08 12:43:26;;;;;;;11.35;3.38;;;;;;;;;;5073266;28;20132;-78
2024/03/08 12:45:52;;;;;;;9.60;3.15;;;;;;;;;;5073987;28;20041;-78
2024/03/08 12:48:20;;;;;;;12.23;3.38;;;;;;;;;;5054224;28;20037;-77
2024/03/08 12:50:47;;;;;;;14.73;3.80;;;;;;;;;;5066345;28;20054;-77
2024/03/08 12:53:14;;;;;;;17.30;3.55;;;;;;;;;;5073181;28;20044;-77
2024/03/08 12:55:41;;;;;;;14.10;3.30;;;;;;;;;;5072889;28;20045;-77
2024/03/08 12:58:09;;;;;;;15.18;3.08;;;;;;;;;;5071241;28;20522;-77
2024/03/08 13:00:42;;;;;;;10.52;3.05;;;;;;;;;;5071424;28;20052;-77
2024/03/08 13:03:10;;;;;;;11.15;2.95;;;;;;;;;;5070781;28;20387;-78
2024/03/08 13:05:39;;;;;;;12.98;3.38;;;;;;;;;;5071705;28;20056;-78
2024/03/08 13:08:12;;;;;;;9.93;3.03;;;;;;;;;;5070643;28;20063;-77
2024/03/08 13:10:43;;;;;;;12.25;2.80;;;;;;;;;;5071345;28;20094;-78
2024/03/08 13:13:12;;;;;;;10.45;2.35;;;;;;;;;;5069811;28;20088;-78
2024/03/08 13:15:42;;;;;;;8.27;2.70;;;;;;;;;;5071124;28;20045;-78
2024/03/08 13:18:09;;;;;;;7.45;2.45;;;;;;;;;;5064844;28;20049;-77
2024/03/08 13:20:39;;;;;;;12.63;2.38;;;;;;;;;;5060369;28;20044;-78
2024/03/08 13:23:14;;;;;;;7.05;2.40;;;;;;;;;;5065278;28;20051;-78
2024/03/08 13:25:41;;;;;;;11.50;3.45;;;;;;;;;;5072523;28;20479;-78
2024/03/08 13:28:08;;;;;;;9.27;2.50;;;;;;;;;;5071841;28;20144;-78
2024/03/08 13:30:35;;;;;;;10.73;2.50;;;;;;;;;;5072662;28;20491;-77
2024/03/08 13:33:04;;;;;;;13.18;2.67;;;;;;;;;;5073221;28;20467;-78
2024/03/08 13:35:32;;;;;;;10.63;3.00;;;;;;;;;;5072085;28;20498;-77
2024/03/08 13:38:02;;;;;;;7.10;2.67;;;;;;;;;;5072720;28;20186;-78
2024/03/08 13:40:30;;;;;;;11.25;2.67;;;;;;;;;;5072180;28;20080;-78
2024/03/08 13:42:58;;;;;;;8.18;2.88;;;;;;;;;;5072475;28;20509;-78
2024/03/08 13:45:26;;;;;;;9.20;3.05;;;;;;;;;;5072100;28;20127;-77
2024/03/08 13:47:56;;;;;;;12.82;3.08;;;;;;;;;;5072345;28;20064;-78
2024/03/08 13:50:23;;;;;;;11.55;3.15;;;;;;;;;;5066216;28;20039;-78
2024/03/08 13:52:51;;;;;;;10.00;2.60;;;;;;;;;;5063888;28;20044;-78
2024/03/08 13:55:26;;;;;;;9.00;2.50;;;;;;;;;;5060430;28;20536;-78
2024/03/08 13:57:54;;;;;;;8.38;2.67;;;;;;;;;;5054349;28;20132;-78
2024/03/08 14:00:23;;;;;;;10.57;2.35;;;;;;;;;;5071757;28;20044;-78
2024/03/08 14:02:49;;;;;;;9.23;2.20;;;;;;;;;;5072428;28;20048;-78
2024/03/08 14:05:17;;;;;;;8.50;1.70;;;;;;;;;;5071548;28;20048;-78
2024/03/08 14:07:48;;;;;;;5.05;1.55;;;;;;;;;;5060316;28;20136;-78
2024/03/08 14:10:19;;;;;;;9.52;2.25;;;;;;;;;;5064039;28;20056;-78
2024/03/08 14:12:48;;;;;;;9.80;1.88;;;;;;;;;;5061256;28;20048;-78
2024/03/08 14:15:16;;;;;;;7.93;1.55;;;;;;;;;;5058013;28;20044;-78
2024/03/08 14:17:46;;;;;;;7.23;1.87;;;;;;;;;;5035522;28;20090;-78
2024/03/08 14:20:14;;;;;;;11.07;2.10;;;;;;;;;;5055993;28;20684;-78
2024/03/08 14:22:41;;;;;;;7.88;2.08;;;;;;;;;;5049565;28;20484;-78
2024/03/08 14:25:16;;;;;;;7.10;1.83;;;;;;;;;;5051778;28;20382;-77
2024/03/08 14:27:45;;;;;;;9.23;2.15;;;;;;;;;;5050603;28;20129;-78
2024/03/08 14:30:13;;;;;;;7.63;1.90;;;;;;;;;;5052698;28;20095;-78
2024/03/08 14:32:41;;;;;;;9.43;1.90;;;;;;;;;;5031780;28;20041;-78
2024/03/08 14:35:11;;;;;;;7.15;1.77;;;;;;;;;;5035483;28;20140;-78
2024/03/08 14:37:38;;;;;;;4.30;1.45;;;;;;;;;;5053091;28;20099;-78
2024/03/08 14:40:05;;;;;;;5.63;1.30;;;;;;;;;;5070505;28;20392;-78
2024/03/08 14:42:32;;;;;;;4.65;1.15;;;;;;;;;;5046400;28;20051;-78
2024/03/08 14:44:59;;;;;;;6.07;1.15;;;;;;;;;;5056216;28;20037;-78
2024/03/08 14:47:26;;;;;;;8.45;1.45;;;;;;;;;;5061192;28;20383;-78
2024/03/08 14:49:55;;;;;;;7.22;1.70;;;;;;;;;;5062380;28;20052;-78
2024/03/08 14:52:28;;;;;;;6.97;1.77;;;;;;;;;;5059977;28;20049;-78
2024/03/08 14:54:56;;;;;;;15.55;2.95;;;;;;;;;;5063467;28;20076;-78